createdAt,value
2018-06-10T00:01:45.412Z,100281.00
2018-06-10T00:04:16.882Z,100265.00
2018-06-10T00:06:47.127Z,100272.00
2018-06-10T00:09:19.737Z,100261.00
2018-06-10T00:11:50.594Z,100270.00
2018-06-10T00:14:21.001Z,100262.00
2018-06-10T00:16:51.796Z,100270.00
2018-06-10T00:19:22.984Z,100262.00
2018-06-10T00:21:53.632Z,100261.00
2018-06-10T00:24:23.983Z,100253.00
2018-06-10T00:26:53.978Z,100257.00
2018-06-10T00:29:24.785Z,100255.00
2018-06-10T00:31:55.754Z,100254.00
2018-06-10T00:34:26.488Z,100255.00
2018-06-10T00:36:56.755Z,100253.00
2018-06-10T00:39:27.128Z,100243.00
2018-06-10T00:41:57.484Z,100244.00
2018-06-10T00:44:27.983Z,100242.00
2018-06-10T00:46:58.340Z,100232.00
2018-06-10T00:49:28.493Z,100232.00
2018-06-10T00:51:58.801Z,100232.00
2018-06-10T00:54:30.533Z,100229.00
2018-06-10T00:57:00.765Z,100232.00
2018-06-10T00:59:31.298Z,100222.00
2018-06-10T01:02:01.826Z,100231.00
2018-06-10T01:04:32.322Z,100231.00
2018-06-10T01:07:03.734Z,100231.00
2018-06-10T01:09:34.188Z,100226.00
2018-06-10T01:12:04.548Z,100221.00
2018-06-10T01:14:34.685Z,100210.00
2018-06-10T01:17:06.131Z,100219.00
2018-06-10T01:19:37.476Z,100219.00
2018-06-10T01:22:09.633Z,100213.00
2018-06-10T01:24:41.457Z,100226.00
2018-06-10T01:27:12.625Z,100216.00
2018-06-10T01:29:43.285Z,100229.00
2018-06-10T01:32:14.641Z,100224.00
2018-06-10T01:34:45.209Z,100219.00
2018-06-10T01:37:15.113Z,100225.00
2018-06-10T01:39:45.684Z,100214.00
2018-06-10T01:42:17.337Z,100223.00
2018-06-10T01:44:48.198Z,100216.00
2018-06-10T01:47:18.372Z,100217.00
2018-06-10T01:49:50.086Z,100205.00
2018-06-10T01:52:20.302Z,100204.00
2018-06-10T01:54:50.468Z,100200.00
2018-06-10T01:57:27.103Z,100208.00
2018-06-10T01:59:57.788Z,100202.00
2018-06-10T02:02:28.692Z,100200.00
2018-06-10T02:04:58.870Z,100219.00
2018-06-10T02:07:29.065Z,100213.00
2018-06-10T02:09:59.194Z,100204.00
2018-06-10T02:12:29.547Z,100201.00
2018-06-10T02:14:59.709Z,100204.00
2018-06-10T02:17:30.123Z,100200.00
2018-06-10T02:20:00.426Z,100190.00
2018-06-10T02:22:30.657Z,100190.00
2018-06-10T02:25:01.381Z,100192.00
2018-06-10T02:27:31.883Z,100192.00
2018-06-10T02:30:02.039Z,100190.00
2018-06-10T02:32:32.214Z,100194.00
2018-06-10T02:35:03.306Z,100191.00
2018-06-10T02:37:33.514Z,100194.00
2018-06-10T02:40:03.786Z,100191.00
2018-06-10T02:42:33.935Z,100186.00
2018-06-10T02:45:04.481Z,100187.00
2018-06-10T02:47:34.816Z,100191.00
2018-06-10T02:50:05.473Z,100187.00
2018-06-10T02:52:35.701Z,100183.00
2018-06-10T02:55:06.221Z,100190.00
2018-06-10T02:57:36.689Z,100184.00
2018-06-10T03:00:06.768Z,100188.00
2018-06-10T03:02:37.814Z,100185.00
2018-06-10T03:05:08.193Z,100192.00
2018-06-10T03:07:38.619Z,100183.00
2018-06-10T03:10:08.790Z,100184.00
2018-06-10T03:12:46.192Z,100174.00
2018-06-10T03:15:16.313Z,100171.00
2018-06-10T03:17:47.006Z,100175.00
2018-06-10T03:20:17.036Z,100185.00
2018-06-10T03:22:47.727Z,100171.00
2018-06-10T03:25:18.148Z,100171.00
2018-06-10T03:27:48.478Z,100169.00
2018-06-10T03:30:18.608Z,100171.00
2018-06-10T03:32:48.946Z,100162.00
2018-06-10T03:35:19.414Z,100164.00
2018-06-10T03:37:53.718Z,100157.00
2018-06-10T03:40:23.916Z,100151.00
2018-06-10T03:42:54.612Z,100162.00
2018-06-10T03:45:24.937Z,100149.00
2018-06-10T03:47:55.064Z,100144.00
2018-06-10T03:50:25.357Z,100157.00
2018-06-10T03:52:55.897Z,100149.00
2018-06-10T03:55:26.122Z,100151.00
2018-06-10T03:57:56.357Z,100147.00
2018-06-10T04:00:26.482Z,100151.00
2018-06-10T04:02:57.924Z,100153.00
2018-06-10T04:05:28.266Z,100153.00
2018-06-10T04:07:58.706Z,100166.00
2018-06-10T04:10:29.047Z,100165.00
2018-06-10T04:12:59.361Z,100183.00
2018-06-10T04:15:29.317Z,100181.00
2018-06-10T04:18:00.287Z,100173.00
2018-06-10T04:20:32.286Z,100180.00
2018-06-10T04:23:02.625Z,100188.00
2018-06-10T04:25:32.956Z,100179.00
2018-06-10T04:28:05.736Z,100183.00
2018-06-10T04:30:36.518Z,100187.00
2018-06-10T04:33:06.838Z,100194.00
2018-06-10T04:35:37.525Z,100195.00
2018-06-10T04:38:08.577Z,100192.00
2018-06-10T04:40:39.042Z,100194.00
2018-06-10T04:43:09.427Z,100194.00
2018-06-10T04:45:40.544Z,100203.00
2018-06-10T04:48:10.668Z,100203.00
2018-06-10T04:50:41.033Z,100201.00
2018-06-10T04:53:11.992Z,100199.00
2018-06-10T04:55:42.426Z,100191.00
2018-06-10T04:58:12.475Z,100213.00
2018-06-10T05:00:43.115Z,100203.00
2018-06-10T05:03:13.501Z,100204.00
2018-06-10T05:05:45.775Z,100202.00
2018-06-10T05:08:16.097Z,100205.00
2018-06-10T05:10:46.913Z,100204.00
2018-06-10T05:13:18.630Z,100206.00
2018-06-10T05:15:49.320Z,100208.00
2018-06-10T05:18:20.030Z,100214.00
2018-06-10T05:20:50.589Z,100219.00
2018-06-10T05:23:20.671Z,100212.00
2018-06-10T05:25:50.792Z,100209.00
2018-06-10T05:28:21.463Z,100206.00
2018-06-10T05:30:53.271Z,100203.00
2018-06-10T05:33:23.681Z,100209.00
2018-06-10T05:35:54.276Z,100206.00
2018-06-10T05:38:24.974Z,100209.00
2018-06-10T05:40:55.572Z,100207.00
2018-06-10T05:43:26.097Z,100211.00
2018-06-10T05:45:56.834Z,100211.00
2018-06-10T05:48:27.691Z,100218.00
2018-06-10T05:50:57.802Z,100215.00
2018-06-10T05:53:28.109Z,100217.00
2018-06-10T05:55:58.310Z,100214.00
2018-06-10T05:58:29.585Z,100216.00
2018-06-10T06:01:00.027Z,100213.00
2018-06-10T06:03:30.746Z,100211.00
2018-06-10T06:06:01.488Z,100232.00
2018-06-10T06:08:32.831Z,100228.00
2018-06-10T06:11:03.493Z,100228.00
2018-06-10T06:13:34.661Z,100229.00
2018-06-10T06:16:05.282Z,100232.00
2018-06-10T06:18:35.562Z,100230.00
2018-06-10T06:21:06.290Z,100231.00
2018-06-10T06:23:37.994Z,100228.00
2018-06-10T06:26:09.337Z,100229.00
2018-06-10T06:28:39.693Z,100227.00
2018-06-10T06:31:10.703Z,100228.00
2018-06-10T06:33:41.842Z,100232.00
2018-06-10T06:36:12.279Z,100230.00
2018-06-10T06:38:42.467Z,100235.00
2018-06-10T06:41:14.628Z,100241.00
2018-06-10T06:43:45.124Z,100236.00
2018-06-10T06:46:16.298Z,100243.00
2018-06-10T06:48:46.506Z,100241.00
2018-06-10T06:51:17.605Z,100250.00
2018-06-10T06:53:48.305Z,100249.00
2018-06-10T06:56:18.422Z,100241.00
2018-06-10T06:58:48.506Z,100248.00
2018-06-10T07:01:19.101Z,100247.00
2018-06-10T07:03:49.399Z,100243.00
2018-06-10T07:06:20.150Z,100246.00
2018-06-10T07:08:51.350Z,100250.00
2018-06-10T07:11:21.876Z,100243.00
2018-06-10T07:13:52.125Z,100259.00
2018-06-10T07:16:22.848Z,100260.00
2018-06-10T07:18:53.621Z,100259.00
2018-06-10T07:21:23.942Z,100254.00
2018-06-10T07:23:54.344Z,100252.00
2018-06-10T07:26:26.657Z,100251.00
2018-06-10T07:28:57.025Z,100253.00
2018-06-10T07:31:27.352Z,100253.00
2018-06-10T07:33:57.614Z,100261.00
2018-06-10T07:36:27.648Z,100260.00
2018-06-10T07:38:58.066Z,100252.00
2018-06-10T07:41:28.285Z,100259.00
2018-06-10T07:43:59.301Z,100263.00
2018-06-10T07:46:29.753Z,100257.00
2018-06-10T07:49:00.017Z,100262.00
2018-06-10T07:58:34.717Z,100270.00
2018-06-10T08:01:04.843Z,100272.00
2018-06-10T08:03:35.330Z,100278.00
2018-06-10T08:06:06.357Z,100268.00
2018-06-10T08:08:36.987Z,100269.00
2018-06-10T08:11:07.788Z,100263.00
2018-06-10T08:13:38.572Z,100266.00
2018-06-10T08:16:08.969Z,100257.00
2018-06-10T08:18:39.015Z,100270.00
2018-06-10T08:21:09.284Z,100275.00
2018-06-10T08:23:39.474Z,100273.00
2018-06-10T08:26:09.729Z,100274.00
2018-06-10T08:28:40.693Z,100268.00
2018-06-10T08:31:11.472Z,100273.00
2018-06-10T08:33:41.879Z,100276.00
2018-06-10T08:36:14.033Z,100269.00
2018-06-10T08:38:44.083Z,100263.00
2018-06-10T08:41:14.596Z,100258.00
2018-06-10T08:43:44.856Z,100260.00
2018-06-10T08:46:15.130Z,100268.00
2018-06-10T08:48:46.009Z,100265.00
2018-06-10T08:51:16.378Z,100261.00
2018-06-10T08:53:46.591Z,100257.00
2018-06-10T08:56:17.588Z,100257.00
2018-06-10T08:58:48.655Z,100254.00
2018-06-10T09:01:19.322Z,100254.00
2018-06-10T09:03:49.848Z,100261.00
2018-06-10T09:06:20.252Z,100255.00
2018-06-10T09:08:50.325Z,100255.00
2018-06-10T09:11:20.897Z,100245.00
2018-06-10T09:13:50.941Z,100254.00
2018-06-10T09:16:22.184Z,100256.00
2018-06-10T09:18:55.168Z,100247.00
2018-06-10T09:21:28.495Z,100240.00
2018-06-10T09:23:58.850Z,100237.00
2018-06-10T09:26:29.117Z,100240.00
2018-06-10T09:28:59.855Z,100241.00
2018-06-10T09:31:31.430Z,100238.00
2018-06-10T09:34:02.495Z,100235.00
2018-06-10T09:36:33.084Z,100188.00
2018-06-10T09:39:04.088Z,100233.00
2018-06-10T09:41:34.780Z,100232.00
2018-06-10T09:44:06.197Z,100229.00
2018-06-10T09:46:36.631Z,100239.00
2018-06-10T09:49:08.746Z,100237.00
2018-06-10T09:51:43.181Z,100240.00
2018-06-10T09:54:13.890Z,100247.00
2018-06-10T09:56:45.295Z,100255.00
2018-06-10T09:59:15.823Z,100244.00
2018-06-10T10:01:47.098Z,100240.00
2018-06-10T10:04:18.119Z,100238.00
2018-06-10T10:06:49.099Z,100244.00
2018-06-10T10:09:19.889Z,100236.00
2018-06-10T10:11:50.806Z,100224.00
2018-06-10T10:14:21.388Z,100234.00
2018-06-10T10:16:52.405Z,100226.00
2018-06-10T10:19:26.754Z,100219.00
2018-06-10T10:21:59.646Z,100224.00
2018-06-10T10:24:37.680Z,100222.00
2018-06-10T10:27:11.297Z,100222.00
2018-06-10T10:29:44.700Z,100225.00
2018-06-10T10:32:17.158Z,100225.00
2018-06-10T10:34:53.995Z,100218.00
2018-06-10T10:37:29.745Z,100224.00
2018-06-10T10:40:03.400Z,100222.00
2018-06-10T10:42:35.884Z,100210.00
2018-06-10T10:45:11.544Z,100213.00
2018-06-10T10:47:42.112Z,100217.00
2018-06-10T10:50:12.831Z,100214.00
2018-06-10T10:52:44.506Z,100208.00
2018-06-10T10:55:14.520Z,100214.00
2018-06-10T10:57:51.631Z,100205.00
2018-06-10T11:00:21.987Z,100208.00
2018-06-10T11:02:52.735Z,100210.00
2018-06-10T11:05:23.995Z,100216.00
2018-06-10T11:07:55.396Z,100212.00
2018-06-10T11:10:26.378Z,100217.00
2018-06-10T11:12:57.143Z,100224.00
2018-06-10T11:15:28.164Z,100223.00
2018-06-10T11:17:59.287Z,100228.00
2018-06-10T11:20:29.802Z,100223.00
2018-06-10T11:23:00.448Z,100214.00
2018-06-10T11:25:31.896Z,100215.00
2018-06-10T11:28:02.424Z,100216.00
2018-06-10T11:30:34.203Z,100219.00
2018-06-10T11:33:05.523Z,100230.00
2018-06-10T11:35:36.366Z,100224.00
2018-06-10T11:38:07.022Z,100173.00
2018-06-10T11:40:37.604Z,100227.00
2018-06-10T11:43:09.434Z,100233.00
2018-06-10T11:45:39.964Z,100236.00
2018-06-10T11:48:10.381Z,100247.00
2018-06-10T11:50:40.945Z,100248.00
2018-06-10T11:53:12.092Z,100251.00
2018-06-10T11:55:42.977Z,100243.00
2018-06-10T11:58:14.068Z,100236.00
2018-06-10T12:00:44.603Z,100240.00
2018-06-10T12:03:15.670Z,100246.00
2018-06-10T12:05:47.095Z,100247.00
2018-06-10T12:08:17.889Z,100241.00
2018-06-10T12:10:48.732Z,100234.00
2018-06-10T12:13:27.792Z,100230.00
2018-06-10T12:16:08.376Z,100247.00
2018-06-10T12:18:46.465Z,100246.00
2018-06-10T12:21:20.118Z,100240.00
2018-06-10T12:24:00.122Z,100235.00
2018-06-10T12:26:35.267Z,100233.00
2018-06-10T12:29:12.663Z,100182.00
2018-06-10T12:31:46.253Z,100236.00
2018-06-10T12:34:20.136Z,100236.00
2018-06-10T12:36:57.748Z,100227.00
2018-06-10T12:39:34.273Z,100233.00
2018-06-10T12:42:17.249Z,100228.00
2018-06-10T12:44:52.287Z,100231.00
2018-06-10T12:47:28.128Z,100227.00
2018-06-10T12:49:59.036Z,100223.00
2018-06-10T12:52:30.839Z,100223.00
2018-06-10T12:55:01.693Z,100226.00
2018-06-10T12:57:32.027Z,100228.00
2018-06-10T13:00:03.007Z,100231.00
2018-06-10T13:02:33.929Z,100229.00
2018-06-10T13:05:04.127Z,100234.00
2018-06-10T13:07:35.542Z,100231.00
2018-06-10T13:10:06.905Z,100227.00
2018-06-10T13:12:37.872Z,100231.00
2018-06-10T13:15:08.931Z,100185.00
2018-06-10T13:17:40.557Z,100216.00
2018-06-10T13:20:11.959Z,100209.00
2018-06-10T13:22:43.664Z,100212.00
2018-06-10T13:25:14.402Z,100219.00
2018-06-10T13:27:45.415Z,100203.00
2018-06-10T13:30:16.804Z,100209.00
2018-06-10T13:32:47.502Z,100207.00
2018-06-10T13:35:17.959Z,100202.00
2018-06-10T13:37:49.180Z,100194.00
2018-06-10T13:40:20.253Z,100190.00
2018-06-10T13:42:52.196Z,100184.00
2018-06-10T13:45:23.593Z,100187.00
2018-06-10T13:47:55.313Z,100192.00
2018-06-10T13:50:27.597Z,100176.00
2018-06-10T13:53:01.232Z,100182.00
2018-06-10T13:55:32.805Z,100187.00
2018-06-10T13:58:03.410Z,100170.00
2018-06-10T14:00:34.352Z,100175.00
2018-06-10T14:03:05.903Z,100172.00
2018-06-10T14:05:37.588Z,100163.00
2018-06-10T14:08:08.452Z,100156.00
2018-06-10T14:10:41.103Z,100144.00
2018-06-10T14:13:11.947Z,100165.00
2018-06-10T14:15:42.977Z,100163.00
2018-06-10T14:18:16.075Z,100154.00
2018-06-10T14:20:49.625Z,100157.00
2018-06-10T14:23:21.044Z,100154.00
2018-06-10T14:25:52.285Z,100137.00
2018-06-10T14:28:22.647Z,100148.00
2018-06-10T14:30:54.246Z,100112.00
2018-06-10T14:33:24.544Z,100136.00
2018-06-10T14:35:55.685Z,100137.00
2018-06-10T14:38:26.012Z,100138.00
2018-06-10T14:40:56.499Z,100137.00
2018-06-10T14:43:27.882Z,100142.00
2018-06-10T14:45:58.068Z,100136.00
2018-06-10T14:48:29.739Z,100138.00
2018-06-10T14:51:00.964Z,100145.00
2018-06-10T14:53:31.980Z,100139.00
2018-06-10T14:56:02.666Z,100140.00
2018-06-10T14:58:33.972Z,100130.00
2018-06-10T15:01:04.834Z,100139.00
2018-06-10T15:03:35.504Z,100135.00
2018-06-10T15:06:06.448Z,100132.00
2018-06-10T15:08:37.140Z,100132.00
2018-06-10T15:11:08.581Z,100137.00
2018-06-10T15:13:39.822Z,100143.00
2018-06-10T15:16:11.076Z,100142.00
2018-06-10T15:18:41.854Z,100145.00
2018-06-10T15:21:12.556Z,100147.00
2018-06-10T15:23:43.701Z,100135.00
2018-06-10T15:26:14.760Z,100143.00
2018-06-10T15:28:46.329Z,100144.00
2018-06-10T15:31:17.266Z,100139.00
2018-06-10T15:33:48.071Z,100143.00
2018-06-10T15:36:19.377Z,100141.00
2018-06-10T15:38:50.058Z,100142.00
2018-06-10T15:41:20.870Z,100135.00
2018-06-10T15:43:52.015Z,100134.00
2018-06-10T15:46:22.546Z,100144.00
2018-06-10T15:48:53.031Z,100143.00
2018-06-10T15:51:23.958Z,100142.00
2018-06-10T15:53:55.289Z,100147.00
2018-06-10T15:56:26.584Z,100144.00
2018-06-10T15:58:57.236Z,100138.00
2018-06-10T16:01:28.691Z,100135.00
2018-06-10T16:03:59.709Z,100135.00
2018-06-10T16:06:30.795Z,100143.00
2018-06-10T16:09:01.046Z,100133.00
2018-06-10T16:11:31.747Z,100134.00
2018-06-10T16:14:02.966Z,100130.00
2018-06-10T16:16:34.792Z,100125.00
2018-06-10T16:19:07.167Z,100122.00
2018-06-10T16:21:38.782Z,100125.00
2018-06-10T16:24:10.065Z,100127.00
2018-06-10T16:26:43.050Z,100126.00
2018-06-10T16:29:13.677Z,100122.00
2018-06-10T16:31:45.605Z,100122.00
2018-06-10T16:34:15.707Z,100116.00
2018-06-10T16:36:46.398Z,100117.00
2018-06-10T16:39:16.831Z,100122.00
2018-06-10T16:41:47.458Z,100113.00
2018-06-10T16:44:17.907Z,100111.00
2018-06-10T16:46:48.165Z,100098.00
2018-06-10T16:49:18.901Z,100105.00
2018-06-10T16:51:49.805Z,100110.00
2018-06-10T16:54:20.271Z,100107.00
2018-06-10T16:56:52.050Z,100109.00
2018-06-10T16:59:23.316Z,100103.00
2018-06-10T17:01:53.887Z,100094.00
2018-06-10T17:04:25.245Z,100094.00
2018-06-10T17:06:56.062Z,100094.00
2018-06-10T17:09:26.682Z,100090.00
2018-06-10T17:11:57.285Z,100053.00
2018-06-10T17:14:27.504Z,100087.00
2018-06-10T17:16:58.111Z,100091.00
2018-06-10T17:19:28.716Z,100080.00
2018-06-10T17:21:59.003Z,100084.00
2018-06-10T17:24:30.263Z,100086.00
2018-06-10T17:27:00.826Z,100086.00
2018-06-10T17:29:32.690Z,100085.00
2018-06-10T17:32:03.933Z,100088.00
2018-06-10T17:34:34.200Z,100081.00
2018-06-10T17:37:05.043Z,100087.00
2018-06-10T17:39:35.361Z,100092.00
2018-06-10T17:42:07.024Z,100080.00
2018-06-10T17:44:38.191Z,100087.00
2018-06-10T17:47:08.949Z,100086.00
2018-06-10T17:49:40.097Z,100082.00
2018-06-10T17:52:10.593Z,100084.00
2018-06-10T17:54:40.739Z,100084.00
2018-06-10T17:57:11.227Z,100078.00
2018-06-10T17:59:42.006Z,100090.00
2018-06-10T18:02:12.392Z,100091.00
2018-06-10T18:04:43.328Z,100091.00
2018-06-10T18:07:13.698Z,100092.00
2018-06-10T18:09:43.926Z,100078.00
2018-06-10T18:12:14.855Z,100084.00
2018-06-10T18:14:45.179Z,100082.00
2018-06-10T18:17:15.424Z,100086.00
2018-06-10T18:19:45.807Z,100089.00
2018-06-10T18:22:16.267Z,100084.00
2018-06-10T18:24:46.682Z,100084.00
2018-06-10T18:27:16.991Z,100084.00
2018-06-10T18:29:48.009Z,100085.00
2018-06-10T18:32:19.132Z,100089.00
2018-06-10T18:34:49.498Z,100094.00
2018-06-10T18:37:19.822Z,100096.00
2018-06-10T18:39:50.536Z,100100.00
2018-06-10T18:42:21.113Z,100097.00
2018-06-10T18:44:52.212Z,100096.00
2018-06-10T18:47:23.792Z,100104.00
2018-06-10T18:49:54.334Z,100103.00
2018-06-10T18:52:24.608Z,100099.00
2018-06-10T18:54:55.753Z,100099.00
2018-06-10T18:57:26.109Z,100099.00
2018-06-10T18:59:57.402Z,100103.00
2018-06-10T19:02:30.489Z,100110.00
2018-06-10T19:05:01.978Z,100113.00
2018-06-10T19:07:32.167Z,100118.00
2018-06-10T19:10:02.525Z,100122.00
2018-06-10T19:12:32.519Z,100111.00
2018-06-10T19:15:03.433Z,100113.00
2018-06-10T19:17:36.155Z,100115.00
2018-06-10T19:20:07.059Z,100119.00
2018-06-10T19:22:37.212Z,100120.00
2018-06-10T19:25:10.243Z,100116.00
2018-06-10T19:27:40.680Z,100119.00
2018-06-10T19:30:11.004Z,100119.00
2018-06-10T19:32:41.048Z,100123.00
2018-06-10T19:35:12.772Z,100116.00
2018-06-10T19:37:44.545Z,100114.00
2018-06-10T19:40:15.082Z,100126.00
2018-06-10T19:42:45.892Z,100120.00
2018-06-10T19:45:15.927Z,100116.00
2018-06-10T19:47:46.343Z,100119.00
2018-06-10T19:50:16.905Z,100113.00
2018-06-10T19:52:47.313Z,100127.00
2018-06-10T19:55:18.337Z,100120.00
2018-06-10T19:57:48.926Z,100130.00
2018-06-10T20:00:19.155Z,100132.00
2018-06-10T20:02:49.267Z,100130.00
2018-06-10T20:05:20.075Z,100129.00
2018-06-10T20:07:50.425Z,100138.00
2018-06-10T20:10:21.125Z,100143.00
2018-06-10T20:12:51.388Z,100148.00
2018-06-10T20:15:22.613Z,100147.00
2018-06-10T20:17:52.856Z,100157.00
2018-06-10T20:20:23.418Z,100158.00
2018-06-10T20:22:54.084Z,100159.00
2018-06-10T20:25:24.983Z,100165.00
2018-06-10T20:27:55.280Z,100167.00
2018-06-10T20:30:25.537Z,100177.00
2018-06-10T20:32:56.089Z,100176.00
2018-06-10T20:35:26.174Z,100179.00
2018-06-10T20:37:56.519Z,100182.00
2018-06-10T20:40:27.594Z,100182.00
2018-06-10T20:42:58.324Z,100186.00
2018-06-10T20:45:32.049Z,100183.00
2018-06-10T20:48:02.474Z,100184.00
2018-06-10T20:50:32.833Z,100178.00
2018-06-10T20:53:04.392Z,100189.00
2018-06-10T20:55:35.412Z,100184.00
2018-06-10T20:58:06.189Z,100203.00
2018-06-10T21:00:36.403Z,100201.00
2018-06-10T21:03:09.152Z,100205.00
2018-06-10T21:05:40.237Z,100203.00
2018-06-10T21:08:10.833Z,100210.00
2018-06-10T21:10:42.576Z,100214.00
2018-06-10T21:13:13.791Z,100214.00
2018-06-10T21:15:45.580Z,100221.00
2018-06-10T21:18:17.508Z,100223.00
2018-06-10T21:20:50.356Z,100232.00
2018-06-10T21:23:20.493Z,100228.00
2018-06-10T21:25:51.003Z,100226.00
2018-06-10T21:28:22.262Z,100234.00
2018-06-10T21:30:53.289Z,100240.00
2018-06-10T21:33:23.669Z,100235.00
2018-06-10T21:35:53.744Z,100240.00
2018-06-10T21:38:23.946Z,100236.00
2018-06-10T21:40:54.274Z,100236.00
2018-06-10T21:43:24.577Z,100229.00
2018-06-10T21:45:55.148Z,100232.00
2018-06-10T21:48:25.279Z,100227.00
2018-06-10T21:50:55.374Z,100222.00
2018-06-10T21:53:26.407Z,100236.00
2018-06-10T21:55:57.629Z,100227.00
2018-06-10T21:58:27.889Z,100224.00
2018-06-10T22:00:59.202Z,100216.00
2018-06-10T22:03:29.580Z,100219.00
2018-06-10T22:06:00.090Z,100221.00
2018-06-10T22:08:30.718Z,100215.00
2018-06-10T22:11:02.600Z,100213.00
2018-06-10T22:13:32.826Z,100212.00
2018-06-10T22:16:03.454Z,100224.00
2018-06-10T22:18:33.661Z,100217.00
2018-06-10T22:21:04.557Z,100218.00
2018-06-10T22:23:34.953Z,100225.00
2018-06-10T22:26:05.756Z,100216.00
2018-06-10T22:28:37.870Z,100219.00
2018-06-10T22:31:08.548Z,100221.00
2018-06-10T22:33:38.575Z,100216.00
2018-06-10T22:36:08.893Z,100215.00
2018-06-10T22:38:39.041Z,100214.00
2018-06-10T22:41:09.473Z,100204.00
2018-06-10T22:43:39.938Z,100205.00
2018-06-10T22:46:10.043Z,100201.00
2018-06-10T22:48:41.828Z,100198.00
2018-06-10T22:51:13.483Z,100200.00
2018-06-10T22:55:08.961Z,100196.00
2018-06-10T22:57:39.605Z,100200.00
2018-06-10T23:00:10.138Z,100198.00
2018-06-10T23:02:41.132Z,100191.00
2018-06-10T23:05:11.633Z,100188.00
2018-06-10T23:07:43.618Z,100184.00
2018-06-10T23:10:14.289Z,100194.00
2018-06-10T23:12:44.764Z,100190.00
2018-06-10T23:15:14.905Z,100190.00
2018-06-10T23:17:46.054Z,100188.00
2018-06-10T23:20:16.270Z,100189.00
2018-06-10T23:22:48.625Z,100191.00
2018-06-10T23:25:25.944Z,100184.00
2018-06-10T23:27:56.511Z,100185.00
2018-06-10T23:30:27.193Z,100189.00
2018-06-10T23:32:57.676Z,100180.00
2018-06-10T23:35:28.764Z,100185.00
2018-06-10T23:37:59.323Z,100191.00
2018-06-10T23:40:29.449Z,100182.00
2018-06-10T23:43:06.447Z,100180.00
2018-06-10T23:45:36.845Z,100191.00
2018-06-10T23:48:07.425Z,100187.00
2018-06-10T23:50:38.477Z,100186.00
2018-06-10T23:53:09.536Z,100187.00
2018-06-10T23:55:39.751Z,100194.00
2018-06-10T23:58:09.975Z,100186.00
